Aviation Digital Data Service (ADDS)

Output produced by METARs form (0823 UTC 23 January 2017)
found at http://aviationweather.gov/adds/metars/
 
KHLG 230525Z 2306/2406 07008KT P6SM VCSH OVC040 
     FM230900 06011G19KT 6SM -RA BR OVC020 
     FM231400 06013G22KT 3SM -RA BR OVC008 
     FM232000 06012KT 3SM -RA OVC006